sensor_id;sensor_type;location;lat;lon;timestamp;temperature;humidity
46085;DHT22;31823;47.032;8.310;2024-03-23T00:51:04;7.60;99.90
46085;DHT22;31823;47.032;8.310;2024-03-23T00:55:56;7.50;99.90
46085;DHT22;31823;47.032;8.310;2024-03-23T00:58:21;7.40;99.90
46085;DHT22;31823;47.032;8.310;2024-03-23T01:00:47;7.60;99.90
46085;DHT22;31823;47.032;8.310;2024-03-23T01:03:13;7.50;99.90
46085;DHT22;31823;47.032;8.310;2024-03-23T01:05:38;7.30;99.90
46085;DHT22;31823;47.032;8.310;2024-03-23T01:08:04;7.30;99.90
46085;DHT22;31823;47.032;8.310;2024-03-23T01:10:30;7.20;99.90
46085;DHT22;31823;47.032;8.310;2024-03-23T01:12:56;7.30;99.90
46085;DHT22;31823;47.032;8.310;2024-03-23T01:15:21;7.20;99.90
46085;DHT22;31823;47.032;8.310;2024-03-23T01:17:47;7.20;99.90
46085;DHT22;31823;47.032;8.310;2024-03-23T01:20:13;7.20;99.90
46085;DHT22;31823;47.032;8.310;2024-03-23T01:22:38;7.20;99.90
46085;DHT22;31823;47.032;8.310;2024-03-23T01:25:04;7.20;99.90
46085;DHT22;31823;47.032;8.310;2024-03-23T01:27:30;7.20;99.90
46085;DHT22;31823;47.032;8.310;2024-03-23T01:29:55;7.00;99.90
46085;DHT22;31823;47.032;8.310;2024-03-23T01:32:21;7.00;99.90
46085;DHT22;31823;47.032;8.310;2024-03-23T01:34:47;7.20;99.90
46085;DHT22;31823;47.032;8.310;2024-03-23T01:37:12;7.20;99.90
46085;DHT22;31823;47.032;8.310;2024-03-23T01:39:38;7.10;99.90
46085;DHT22;31823;47.032;8.310;2024-03-23T01:42:04;7.10;99.90
46085;DHT22;31823;47.032;8.310;2024-03-23T01:44:29;7.10;99.90
46085;DHT22;31823;47.032;8.310;2024-03-23T01:46:55;7.10;99.90
46085;DHT22;31823;47.032;8.310;2024-03-23T01:49:20;7.10;99.90
46085;DHT22;31823;47.032;8.310;2024-03-23T01:51:46;7.10;99.90
46085;DHT22;31823;47.032;8.310;2024-03-23T01:54:12;7.30;99.90
46085;DHT22;31823;47.032;8.310;2024-03-23T01:56:38;7.20;99.90
46085;DHT22;31823;47.032;8.310;2024-03-23T01:59:04;7.10;99.90
46085;DHT22;31823;47.032;8.310;2024-03-23T02:01:30;7.10;99.90
46085;DHT22;31823;47.032;8.310;2024-03-23T02:03:56;7.20;99.90
46085;DHT22;31823;47.032;8.310;2024-03-23T02:06:24;7.10;99.90
46085;DHT22;31823;47.032;8.310;2024-03-23T02:08:49;7.20;99.90
46085;DHT22;31823;47.032;8.310;2024-03-23T02:11:15;7.40;99.90
46085;DHT22;31823;47.032;8.310;2024-03-23T02:13:41;7.30;99.90
46085;DHT22;31823;47.032;8.310;2024-03-23T02:16:06;7.30;99.90
46085;DHT22;31823;47.032;8.310;2024-03-23T02:18:33;7.10;99.90
46085;DHT22;31823;47.032;8.310;2024-03-23T02:20:58;7.10;99.90
46085;DHT22;31823;47.032;8.310;2024-03-23T02:23:24;7.00;99.90
46085;DHT22;31823;47.032;8.310;2024-03-23T02:25:50;7.00;99.90
46085;DHT22;31823;47.032;8.310;2024-03-23T02:28:16;7.00;99.90
46085;DHT22;31823;47.032;8.310;2024-03-23T02:30:42;6.90;99.90
46085;DHT22;31823;47.032;8.310;2024-03-23T02:33:08;7.00;99.90
46085;DHT22;31823;47.032;8.310;2024-03-23T02:35:34;6.80;99.90
46085;DHT22;31823;47.032;8.310;2024-03-23T02:37:59;6.90;99.90
46085;DHT22;31823;47.032;8.310;2024-03-23T02:40:25;7.00;99.90
46085;DHT22;31823;47.032;8.310;2024-03-23T02:42:51;7.10;99.90
46085;DHT22;31823;47.032;8.310;2024-03-23T02:45:16;6.90;99.90
46085;DHT22;31823;47.032;8.310;2024-03-23T02:47:42;6.90;99.90
46085;DHT22;31823;47.032;8.310;2024-03-23T02:50:11;6.80;99.90
46085;DHT22;31823;47.032;8.310;2024-03-23T02:52:37;6.70;99.90
46085;DHT22;31823;47.032;8.310;2024-03-23T02:55:03;6.70;99.90
46085;DHT22;31823;47.032;8.310;2024-03-23T02:57:29;6.80;99.90
46085;DHT22;31823;47.032;8.310;2024-03-23T02:59:55;6.90;99.90
46085;DHT22;31823;47.032;8.310;2024-03-23T03:02:21;6.80;99.90
46085;DHT22;31823;47.032;8.310;2024-03-23T03:04:47;6.70;99.90
46085;DHT22;31823;47.032;8.310;2024-03-23T03:07:13;6.70;99.90
46085;DHT22;31823;47.032;8.310;2024-03-23T03:09:39;6.80;99.90
46085;DHT22;31823;47.032;8.310;2024-03-23T03:12:05;6.60;99.90
46085;DHT22;31823;47.032;8.310;2024-03-23T03:14:31;6.60;99.90
46085;DHT22;31823;47.032;8.310;2024-03-23T03:16:56;6.60;99.90
46085;DHT22;31823;47.032;8.310;2024-03-23T03:19:22;6.60;99.90
46085;DHT22;31823;47.032;8.310;2024-03-23T03:21:48;6.60;99.90
46085;DHT22;31823;47.032;8.310;2024-03-23T03:24:13;6.60;99.90
46085;DHT22;31823;47.032;8.310;2024-03-23T03:26:39;6.60;99.90
46085;DHT22;31823;47.032;8.310;2024-03-23T03:29:05;6.70;99.90
46085;DHT22;31823;47.032;8.310;2024-03-23T03:31:30;6.60;99.90
46085;DHT22;31823;47.032;8.310;2024-03-23T03:33:56;6.60;99.90
46085;DHT22;31823;47.032;8.310;2024-03-23T03:36:22;6.50;99.90
46085;DHT22;31823;47.032;8.310;2024-03-23T03:38:47;6.60;99.90
46085;DHT22;31823;47.032;8.310;2024-03-23T03:41:13;6.60;99.90
46085;DHT22;31823;47.032;8.310;2024-03-23T03:43:39;6.60;99.90
46085;DHT22;31823;47.032;8.310;2024-03-23T03:46:04;6.60;99.90
46085;DHT22;31823;47.032;8.310;2024-03-23T03:48:30;6.70;99.90
46085;DHT22;31823;47.032;8.310;2024-03-23T03:50:56;6.70;99.90
46085;DHT22;31823;47.032;8.310;2024-03-23T03:53:21;6.80;99.90
46085;DHT22;31823;47.032;8.310;2024-03-23T03:55:47;6.80;99.90
46085;DHT22;31823;47.032;8.310;2024-03-23T03:58:12;6.90;99.90
46085;DHT22;31823;47.032;8.310;2024-03-23T04:00:38;6.90;99.90
46085;DHT22;31823;47.032;8.310;2024-03-23T04:03:04;7.10;99.90
46085;DHT22;31823;47.032;8.310;2024-03-23T04:05:30;7.20;99.90
46085;DHT22;31823;47.032;8.310;2024-03-23T04:07:56;7.10;99.90
46085;DHT22;31823;47.032;8.310;2024-03-23T04:10:22;7.20;99.90
46085;DHT22;31823;47.032;8.310;2024-03-23T04:12:47;7.20;99.90
46085;DHT22;31823;47.032;8.310;2024-03-23T04:15:13;7.10;99.90
46085;DHT22;31823;47.032;8.310;2024-03-23T04:17:39;7.00;99.90
46085;DHT22;31823;47.032;8.310;2024-03-23T04:20:07;7.10;99.90
46085;DHT22;31823;47.032;8.310;2024-03-23T04:22:37;7.10;99.90
46085;DHT22;31823;47.032;8.310;2024-03-23T04:25:03;7.00;99.90
46085;DHT22;31823;47.032;8.310;2024-03-23T04:27:35;6.90;99.90
46085;DHT22;31823;47.032;8.310;2024-03-23T04:30:01;6.90;99.90
46085;DHT22;31823;47.032;8.310;2024-03-23T04:32:28;7.00;99.90
46085;DHT22;31823;47.032;8.310;2024-03-23T04:34:54;6.90;99.90
46085;DHT22;31823;47.032;8.310;2024-03-23T04:37:20;6.90;99.90
46085;DHT22;31823;47.032;8.310;2024-03-23T04:39:46;6.80;99.90
46085;DHT22;31823;47.032;8.310;2024-03-23T04:42:15;6.90;99.90
46085;DHT22;31823;47.032;8.310;2024-03-23T04:44:40;6.80;99.90
46085;DHT22;31823;47.032;8.310;2024-03-23T04:47:06;6.70;99.90
46085;DHT22;31823;47.032;8.310;2024-03-23T04:49:32;6.70;99.90
46085;DHT22;31823;47.032;8.310;2024-03-23T04:51:57;6.70;99.90
46085;DHT22;31823;47.032;8.310;2024-03-23T04:54:23;6.70;99.90
46085;DHT22;31823;47.032;8.310;2024-03-23T04:56:49;6.80;99.90
46085;DHT22;31823;47.032;8.310;2024-03-23T04:59:15;6.80;99.90
46085;DHT22;31823;47.032;8.310;2024-03-23T05:01:41;6.80;99.90
46085;DHT22;31823;47.032;8.310;2024-03-23T05:04:08;6.90;99.90
46085;DHT22;31823;47.032;8.310;2024-03-23T05:06:33;7.10;99.90
46085;DHT22;31823;47.032;8.310;2024-03-23T05:09:00;7.10;99.90
46085;DHT22;31823;47.032;8.310;2024-03-23T05:11:27;7.10;99.90
46085;DHT22;31823;47.032;8.310;2024-03-23T05:13:52;7.10;99.90
46085;DHT22;31823;47.032;8.310;2024-03-23T05:16:18;7.20;99.90
46085;DHT22;31823;47.032;8.310;2024-03-23T05:18:43;7.20;99.90
46085;DHT22;31823;47.032;8.310;2024-03-23T05:21:09;7.30;99.90
46085;DHT22;31823;47.032;8.310;2024-03-23T05:23:34;7.50;99.90
46085;DHT22;31823;47.032;8.310;2024-03-23T05:26:00;7.60;99.90
46085;DHT22;31823;47.032;8.310;2024-03-23T05:28:26;7.60;99.90
46085;DHT22;31823;47.032;8.310;2024-03-23T05:30:55;7.60;99.90
46085;DHT22;31823;47.032;8.310;2024-03-23T05:33:22;7.60;99.90
46085;DHT22;31823;47.032;8.310;2024-03-23T05:36:00;7.80;99.90
46085;DHT22;31823;47.032;8.310;2024-03-23T05:38:26;7.80;99.90
46085;DHT22;31823;47.032;8.310;2024-03-23T05:40:59;7.80;99.90
46085;DHT22;31823;47.032;8.310;2024-03-23T05:43:26;8.10;99.90
46085;DHT22;31823;47.032;8.310;2024-03-23T05:48:21;8.10;99.90
46085;DHT22;31823;47.032;8.310;2024-03-23T05:50:47;8.00;99.90
46085;DHT22;31823;47.032;8.310;2024-03-23T05:53:15;8.00;99.90
46085;DHT22;31823;47.032;8.310;2024-03-23T05:55:40;8.00;99.90
46085;DHT22;31823;47.032;8.310;2024-03-23T05:58:06;8.20;99.90
46085;DHT22;31823;47.032;8.310;2024-03-23T06:00:31;8.30;99.90
46085;DHT22;31823;47.032;8.310;2024-03-23T06:02:57;8.40;99.90
46085;DHT22;31823;47.032;8.310;2024-03-23T06:05:23;8.20;99.90
46085;DHT22;31823;47.032;8.310;2024-03-23T06:07:49;8.40;99.90
46085;DHT22;31823;47.032;8.310;2024-03-23T06:10:15;9.00;99.90
46085;DHT22;31823;47.032;8.310;2024-03-23T06:12:41;9.90;99.90
46085;DHT22;31823;47.032;8.310;2024-03-23T06:15:07;10.40;99.90
46085;DHT22;31823;47.032;8.310;2024-03-23T06:17:36;10.40;99.90
46085;DHT22;31823;47.032;8.310;2024-03-23T06:20:02;10.50;99.90
46085;DHT22;31823;47.032;8.310;2024-03-23T06:22:27;10.90;99.90
46085;DHT22;31823;47.032;8.310;2024-03-23T06:24:53;11.00;99.90
46085;DHT22;31823;47.032;8.310;2024-03-23T06:27:18;10.90;99.90
46085;DHT22;31823;47.032;8.310;2024-03-23T06:29:44;10.80;99.90
46085;DHT22;31823;47.032;8.310;2024-03-23T06:32:09;10.80;99.90
46085;DHT22;31823;47.032;8.310;2024-03-23T06:34:35;10.80;99.90
46085;DHT22;31823;47.032;8.310;2024-03-23T06:37:01;10.80;99.90
46085;DHT22;31823;47.032;8.310;2024-03-23T06:39:26;10.80;99.90
46085;DHT22;31823;47.032;8.310;2024-03-23T06:41:53;10.90;99.90
46085;DHT22;31823;47.032;8.310;2024-03-23T06:44:19;10.90;99.90
46085;DHT22;31823;47.032;8.310;2024-03-23T06:46:45;10.90;99.90
46085;DHT22;31823;47.032;8.310;2024-03-23T06:49:11;10.80;99.90
46085;DHT22;31823;47.032;8.310;2024-03-23T06:51:37;10.70;99.90
46085;DHT22;31823;47.032;8.310;2024-03-23T06:54:03;10.60;99.90
46085;DHT22;31823;47.032;8.310;2024-03-23T06:56:30;10.60;99.90
46085;DHT22;31823;47.032;8.310;2024-03-23T06:58:56;10.80;99.90
46085;DHT22;31823;47.032;8.310;2024-03-23T07:01:22;10.70;99.90
46085;DHT22;31823;47.032;8.310;2024-03-23T07:03:47;10.40;99.90
46085;DHT22;31823;47.032;8.310;2024-03-23T07:06:13;10.50;99.90
46085;DHT22;31823;47.032;8.310;2024-03-23T07:08:38;10.50;99.90
46085;DHT22;31823;47.032;8.310;2024-03-23T07:11:04;10.40;99.90
46085;DHT22;31823;47.032;8.310;2024-03-23T07:13:30;10.30;99.90
46085;DHT22;31823;47.032;8.310;2024-03-23T07:16:02;10.20;99.90
46085;DHT22;31823;47.032;8.310;2024-03-23T07:18:28;10.40;99.90
46085;DHT22;31823;47.032;8.310;2024-03-23T07:20:57;10.40;99.90
46085;DHT22;31823;47.032;8.310;2024-03-23T07:23:24;10.40;99.90
46085;DHT22;31823;47.032;8.310;2024-03-23T07:25:59;10.50;99.90
46085;DHT22;31823;47.032;8.310;2024-03-23T07:28:25;10.40;99.90
46085;DHT22;31823;47.032;8.310;2024-03-23T07:33:32;10.70;99.90
46085;DHT22;31823;47.032;8.310;2024-03-23T07:35:58;10.70;99.90
46085;DHT22;31823;47.032;8.310;2024-03-23T07:38:28;10.70;99.90
46085;DHT22;31823;47.032;8.310;2024-03-23T07:41:09;10.70;99.90
46085;DHT22;31823;47.032;8.310;2024-03-23T07:43:37;10.60;99.90
46085;DHT22;31823;47.032;8.310;2024-03-23T07:46:03;10.70;99.90
46085;DHT22;31823;47.032;8.310;2024-03-23T07:48:29;10.70;99.90
46085;DHT22;31823;47.032;8.310;2024-03-23T07:51:02;10.70;99.90
46085;DHT22;31823;47.032;8.310;2024-03-23T07:53:28;10.80;99.90
46085;DHT22;31823;47.032;8.310;2024-03-23T07:55:57;10.80;99.90
46085;DHT22;31823;47.032;8.310;2024-03-23T07:58:23;10.80;99.90
46085;DHT22;31823;47.032;8.310;2024-03-23T08:00:49;10.70;99.90
46085;DHT22;31823;47.032;8.310;2024-03-23T08:03:15;10.80;99.90
46085;DHT22;31823;47.032;8.310;2024-03-23T08:05:40;10.90;99.90
46085;DHT22;31823;47.032;8.310;2024-03-23T08:08:06;11.20;99.90
46085;DHT22;31823;47.032;8.310;2024-03-23T08:10:32;11.10;99.90
46085;DHT22;31823;47.032;8.310;2024-03-23T08:12:57;11.00;99.90
46085;DHT22;31823;47.032;8.310;2024-03-23T08:15:23;11.00;99.90
46085;DHT22;31823;47.032;8.310;2024-03-23T08:17:50;11.10;99.90
46085;DHT22;31823;47.032;8.310;2024-03-23T08:20:15;11.00;99.90
46085;DHT22;31823;47.032;8.310;2024-03-23T08:22:41;10.90;99.90
46085;DHT22;31823;47.032;8.310;2024-03-23T08:25:06;10.90;99.90
46085;DHT22;31823;47.032;8.310;2024-03-23T08:27:32;10.90;99.90
46085;DHT22;31823;47.032;8.310;2024-03-23T08:29:58;10.90;99.90
46085;DHT22;31823;47.032;8.310;2024-03-23T08:32:24;11.00;99.90
46085;DHT22;31823;47.032;8.310;2024-03-23T08:34:49;11.00;99.90
46085;DHT22;31823;47.032;8.310;2024-03-23T08:37:15;11.00;99.90
46085;DHT22;31823;47.032;8.310;2024-03-23T08:39:43;10.90;99.90
46085;DHT22;31823;47.032;8.310;2024-03-23T08:42:08;9.90;99.90
46085;DHT22;31823;47.032;8.310;2024-03-23T08:44:34;9.20;99.90
46085;DHT22;31823;47.032;8.310;2024-03-23T08:46:59;8.70;99.90
46085;DHT22;31823;47.032;8.310;2024-03-23T08:49:26;8.40;99.90
46085;DHT22;31823;47.032;8.310;2024-03-23T08:51:52;8.00;99.90
46085;DHT22;31823;47.032;8.310;2024-03-23T08:54:17;7.70;99.90
46085;DHT22;31823;47.032;8.310;2024-03-23T08:56:45;7.60;99.90
46085;DHT22;31823;47.032;8.310;2024-03-23T08:59:11;7.60;99.90
46085;DHT22;31823;47.032;8.310;2024-03-23T09:01:37;7.50;99.90
46085;DHT22;31823;47.032;8.310;2024-03-23T09:04:03;7.50;99.90
46085;DHT22;31823;47.032;8.310;2024-03-23T09:06:29;7.60;99.90
46085;DHT22;31823;47.032;8.310;2024-03-23T09:08:55;7.60;99.90
46085;DHT22;31823;47.032;8.310;2024-03-23T09:11:20;7.70;99.90
46085;DHT22;31823;47.032;8.310;2024-03-23T09:13:46;7.70;99.90
46085;DHT22;31823;47.032;8.310;2024-03-23T09:16:11;7.60;99.90
46085;DHT22;31823;47.032;8.310;2024-03-23T09:18:37;7.60;99.90
46085;DHT22;31823;47.032;8.310;2024-03-23T09:21:04;7.70;99.90
46085;DHT22;31823;47.032;8.310;2024-03-23T09:23:35;7.60;99.90
46085;DHT22;31823;47.032;8.310;2024-03-23T09:26:04;7.50;99.90
46085;DHT22;31823;47.032;8.310;2024-03-23T09:28:30;7.60;99.90
46085;DHT22;31823;47.032;8.310;2024-03-23T09:31:02;7.60;99.90
46085;DHT22;31823;47.032;8.310;2024-03-23T09:33:28;7.70;99.90
46085;DHT22;31823;47.032;8.310;2024-03-23T09:35:55;7.60;99.90
46085;DHT22;31823;47.032;8.310;2024-03-23T09:38:22;7.60;99.90
46085;DHT22;31823;47.032;8.310;2024-03-23T09:40:52;7.60;99.90
46085;DHT22;31823;47.032;8.310;2024-03-23T09:43:18;7.60;99.90
46085;DHT22;31823;47.032;8.310;2024-03-23T09:45:45;7.50;99.90
46085;DHT22;31823;47.032;8.310;2024-03-23T09:48:11;7.50;99.90
46085;DHT22;31823;47.032;8.310;2024-03-23T09:50:40;7.50;99.90
46085;DHT22;31823;47.032;8.310;2024-03-23T09:53:11;7.40;99.90
46085;DHT22;31823;47.032;8.310;2024-03-23T09:55:37;7.60;99.90
46085;DHT22;31823;47.032;8.310;2024-03-23T09:58:04;7.60;99.90
46085;DHT22;31823;47.032;8.310;2024-03-23T10:00:31;7.40;99.90
46085;DHT22;31823;47.032;8.310;2024-03-23T10:02:57;7.30;99.90
46085;DHT22;31823;47.032;8.310;2024-03-23T10:05:27;7.30;99.90
46085;DHT22;31823;47.032;8.310;2024-03-23T10:07:53;7.20;99.90
46085;DHT22;31823;47.032;8.310;2024-03-23T10:10:19;7.10;99.90
46085;DHT22;31823;47.032;8.310;2024-03-23T10:12:46;7.10;99.90
46085;DHT22;31823;47.032;8.310;2024-03-23T10:15:21;7.40;99.90
46085;DHT22;31823;47.032;8.310;2024-03-23T10:17:47;7.50;99.90
46085;DHT22;31823;47.032;8.310;2024-03-23T10:20:13;7.30;99.90
46085;DHT22;31823;47.032;8.310;2024-03-23T10:22:44;7.20;99.90
46085;DHT22;31823;47.032;8.310;2024-03-23T10:25:10;7.30;99.90
46085;DHT22;31823;47.032;8.310;2024-03-23T10:27:36;7.50;99.90
46085;DHT22;31823;47.032;8.310;2024-03-23T10:32:35;7.70;99.90
46085;DHT22;31823;47.032;8.310;2024-03-23T10:35:20;7.50;99.90
46085;DHT22;31823;47.032;8.310;2024-03-23T10:37:49;7.30;99.90
46085;DHT22;31823;47.032;8.310;2024-03-23T10:40:15;7.20;99.90
46085;DHT22;31823;47.032;8.310;2024-03-23T10:42:41;7.20;99.90
46085;DHT22;31823;47.032;8.310;2024-03-23T10:45:08;7.20;99.90
46085;DHT22;31823;47.032;8.310;2024-03-23T10:47:37;7.30;99.90
46085;DHT22;31823;47.032;8.310;2024-03-23T10:50:06;7.30;99.90
46085;DHT22;31823;47.032;8.310;2024-03-23T10:52:33;7.30;99.90
46085;DHT22;31823;47.032;8.310;2024-03-23T10:55:01;7.30;99.90
46085;DHT22;31823;47.032;8.310;2024-03-23T10:57:35;7.30;99.90
46085;DHT22;31823;47.032;8.310;2024-03-23T11:00:03;7.20;99.90
46085;DHT22;31823;47.032;8.310;2024-03-23T11:02:29;7.20;99.90
46085;DHT22;31823;47.032;8.310;2024-03-23T11:04:55;7.30;99.90
46085;DHT22;31823;47.032;8.310;2024-03-23T11:09:53;7.50;99.90
46085;DHT22;31823;47.032;8.310;2024-03-23T11:14:51;7.90;99.90
46085;DHT22;31823;47.032;8.310;2024-03-23T11:17:21;8.00;99.90
46085;DHT22;31823;47.032;8.310;2024-03-23T11:25:12;8.10;99.90
46085;DHT22;31823;47.032;8.310;2024-03-23T11:27:38;8.10;99.90
46085;DHT22;31823;47.032;8.310;2024-03-23T11:30:18;8.10;99.90
46085;DHT22;31823;47.032;8.310;2024-03-23T11:32:47;8.10;99.90
46085;DHT22;31823;47.032;8.310;2024-03-23T11:38:04;8.40;99.90
46085;DHT22;31823;47.032;8.310;2024-03-23T11:40:30;8.60;99.90
46085;DHT22;31823;47.032;8.310;2024-03-23T11:43:00;8.40;99.90
46085;DHT22;31823;47.032;8.310;2024-03-23T11:45:26;8.60;99.90
46085;DHT22;31823;47.032;8.310;2024-03-23T11:50:40;8.50;99.90
46085;DHT22;31823;47.032;8.310;2024-03-23T11:53:17;8.70;99.90
46085;DHT22;31823;47.032;8.310;2024-03-23T11:55:59;8.60;99.90
46085;DHT22;31823;47.032;8.310;2024-03-23T11:58:27;8.70;99.90
46085;DHT22;31823;47.032;8.310;2024-03-23T12:01:12;8.90;99.90
46085;DHT22;31823;47.032;8.310;2024-03-23T12:03:38;9.50;99.90
46085;DHT22;31823;47.032;8.310;2024-03-23T12:06:04;9.50;99.90
46085;DHT22;31823;47.032;8.310;2024-03-23T12:08:34;9.90;99.90
46085;DHT22;31823;47.032;8.310;2024-03-23T12:13:39;10.10;97.00
46085;DHT22;31823;47.032;8.310;2024-03-23T12:16:15;10.30;99.50
46085;DHT22;31823;47.032;8.310;2024-03-23T12:18:43;10.20;98.90
46085;DHT22;31823;47.032;8.310;2024-03-23T12:21:10;10.60;98.10
46085;DHT22;31823;47.032;8.310;2024-03-23T12:23:36;10.30;98.80
46085;DHT22;31823;47.032;8.310;2024-03-23T12:26:01;10.70;97.40
46085;DHT22;31823;47.032;8.310;2024-03-23T12:28:27;10.90;97.50
46085;DHT22;31823;47.032;8.310;2024-03-23T12:30:53;10.90;98.50
46085;DHT22;31823;47.032;8.310;2024-03-23T12:33:22;11.30;95.00
46085;DHT22;31823;47.032;8.310;2024-03-23T12:35:48;11.10;95.40
46085;DHT22;31823;47.032;8.310;2024-03-23T12:38:15;11.00;95.80
46085;DHT22;31823;47.032;8.310;2024-03-23T12:40:40;11.80;95.00
46085;DHT22;31823;47.032;8.310;2024-03-23T12:43:06;12.00;94.50
46085;DHT22;31823;47.032;8.310;2024-03-23T12:45:33;11.90;94.00
46085;DHT22;31823;47.032;8.310;2024-03-23T12:47:58;12.10;94.80
46085;DHT22;31823;47.032;8.310;2024-03-23T12:50:24;13.20;94.10
46085;DHT22;31823;47.032;8.310;2024-03-23T12:52:50;13.50;91.40
46085;DHT22;31823;47.032;8.310;2024-03-23T12:55:15;13.40;91.50
46085;DHT22;31823;47.032;8.310;2024-03-23T12:57:41;12.40;91.30
46085;DHT22;31823;47.032;8.310;2024-03-23T13:00:07;13.00;93.30
46085;DHT22;31823;47.032;8.310;2024-03-23T13:02:35;13.60;91.60
46085;DHT22;31823;47.032;8.310;2024-03-23T13:05:01;13.80;92.80
46085;DHT22;31823;47.032;8.310;2024-03-23T13:07:26;14.60;92.80
46085;DHT22;31823;47.032;8.310;2024-03-23T13:09:52;14.80;89.40
46085;DHT22;31823;47.032;8.310;2024-03-23T13:12:21;14.30;90.40
46085;DHT22;31823;47.032;8.310;2024-03-23T13:14:47;13.40;87.70
46085;DHT22;31823;47.032;8.310;2024-03-23T13:17:12;12.80;91.90
46085;DHT22;31823;47.032;8.310;2024-03-23T13:19:38;12.90;91.00
46085;DHT22;31823;47.032;8.310;2024-03-23T13:22:04;12.10;91.50
46085;DHT22;31823;47.032;8.310;2024-03-23T13:24:30;12.50;91.10
46085;DHT22;31823;47.032;8.310;2024-03-23T13:26:57;12.10;91.20
46085;DHT22;31823;47.032;8.310;2024-03-23T13:29:23;12.30;91.90
46085;DHT22;31823;47.032;8.310;2024-03-23T13:31:50;12.10;90.90
46085;DHT22;31823;47.032;8.310;2024-03-23T13:34:16;12.10;90.10
46085;DHT22;31823;47.032;8.310;2024-03-23T13:36:43;11.90;89.40
46085;DHT22;31823;47.032;8.310;2024-03-23T13:39:09;12.00;91.60
46085;DHT22;31823;47.032;8.310;2024-03-23T13:41:41;11.90;91.30
46085;DHT22;31823;47.032;8.310;2024-03-23T13:44:08;12.30;88.20
46085;DHT22;31823;47.032;8.310;2024-03-23T13:46:34;12.60;89.90
46085;DHT22;31823;47.032;8.310;2024-03-23T13:49:00;12.40;87.40
46085;DHT22;31823;47.032;8.310;2024-03-23T13:51:26;13.10;88.10
46085;DHT22;31823;47.032;8.310;2024-03-23T13:53:56;13.40;82.00
46085;DHT22;31823;47.032;8.310;2024-03-23T13:56:25;13.50;85.20
46085;DHT22;31823;47.032;8.310;2024-03-23T13:58:51;13.70;82.90
46085;DHT22;31823;47.032;8.310;2024-03-23T14:01:17;14.90;85.20
46085;DHT22;31823;47.032;8.310;2024-03-23T14:03:43;13.80;76.40
46085;DHT22;31823;47.032;8.310;2024-03-23T14:06:10;12.60;78.40
46085;DHT22;31823;47.032;8.310;2024-03-23T14:08:36;12.10;79.00
46085;DHT22;31823;47.032;8.310;2024-03-23T14:11:05;11.70;79.60
46085;DHT22;31823;47.032;8.310;2024-03-23T14:13:31;12.20;81.20
46085;DHT22;31823;47.032;8.310;2024-03-23T14:15:57;12.10;79.80
46085;DHT22;31823;47.032;8.310;2024-03-23T14:18:22;12.70;79.80
46085;DHT22;31823;47.032;8.310;2024-03-23T14:20:49;12.10;78.60
46085;DHT22;31823;47.032;8.310;2024-03-23T14:23:15;11.50;81.50
46085;DHT22;31823;47.032;8.310;2024-03-23T14:25:41;11.20;80.20
46085;DHT22;31823;47.032;8.310;2024-03-23T14:28:07;11.20;81.50
46085;DHT22;31823;47.032;8.310;2024-03-23T14:30:39;11.10;80.00
46085;DHT22;31823;47.032;8.310;2024-03-23T14:33:04;10.90;81.40
46085;DHT22;31823;47.032;8.310;2024-03-23T14:35:30;11.10;81.30
46085;DHT22;31823;47.032;8.310;2024-03-23T14:37:56;10.60;83.70
46085;DHT22;31823;47.032;8.310;2024-03-23T14:40:22;10.60;83.40
46085;DHT22;31823;47.032;8.310;2024-03-23T14:42:47;10.70;86.20
46085;DHT22;31823;47.032;8.310;2024-03-23T14:45:13;10.60;88.10
46085;DHT22;31823;47.032;8.310;2024-03-23T14:47:41;11.00;85.00
46085;DHT22;31823;47.032;8.310;2024-03-23T14:50:07;10.90;84.30
46085;DHT22;31823;47.032;8.310;2024-03-23T14:52:34;10.40;86.60
46085;DHT22;31823;47.032;8.310;2024-03-23T14:54:59;10.20;86.90
46085;DHT22;31823;47.032;8.310;2024-03-23T14:57:25;10.30;87.90
46085;DHT22;31823;47.032;8.310;2024-03-23T14:59:50;10.40;87.50
46085;DHT22;31823;47.032;8.310;2024-03-23T15:02:17;10.60;88.80
46085;DHT22;31823;47.032;8.310;2024-03-23T15:04:43;10.50;86.40
46085;DHT22;31823;47.032;8.310;2024-03-23T15:07:08;10.40;88.50
46085;DHT22;31823;47.032;8.310;2024-03-23T15:09:34;10.40;88.10
46085;DHT22;31823;47.032;8.310;2024-03-23T15:12:00;10.30;90.00
46085;DHT22;31823;47.032;8.310;2024-03-23T15:14:25;10.10;90.20
46085;DHT22;31823;47.032;8.310;2024-03-23T15:16:51;10.20;90.50
46085;DHT22;31823;47.032;8.310;2024-03-23T15:19:18;10.20;89.10
46085;DHT22;31823;47.032;8.310;2024-03-23T15:21:44;10.10;88.40
46085;DHT22;31823;47.032;8.310;2024-03-23T15:24:09;10.30;90.30
46085;DHT22;31823;47.032;8.310;2024-03-23T15:26:38;10.20;90.30
46085;DHT22;31823;47.032;8.310;2024-03-23T15:29:04;10.30;88.60
46085;DHT22;31823;47.032;8.310;2024-03-23T15:31:37;10.20;89.90
46085;DHT22;31823;47.032;8.310;2024-03-23T15:34:02;10.40;87.90
46085;DHT22;31823;47.032;8.310;2024-03-23T15:36:29;10.30;89.60
46085;DHT22;31823;47.032;8.310;2024-03-23T15:38:54;10.10;89.30
46085;DHT22;31823;47.032;8.310;2024-03-23T15:41:20;10.10;87.70
46085;DHT22;31823;47.032;8.310;2024-03-23T15:43:48;10.20;87.80
46085;DHT22;31823;47.032;8.310;2024-03-23T15:46:14;10.10;89.80
46085;DHT22;31823;47.032;8.310;2024-03-23T15:48:40;10.20;89.30
46085;DHT22;31823;47.032;8.310;2024-03-23T15:51:11;10.30;90.10
46085;DHT22;31823;47.032;8.310;2024-03-23T15:53:37;10.20;88.30
46085;DHT22;31823;47.032;8.310;2024-03-23T15:56:03;10.00;85.90
46085;DHT22;31823;47.032;8.310;2024-03-23T15:58:30;9.80;86.20
46085;DHT22;31823;47.032;8.310;2024-03-23T16:00:56;9.90;86.90
46085;DHT22;31823;47.032;8.310;2024-03-23T16:03:23;10.00;85.90
46085;DHT22;31823;47.032;8.310;2024-03-23T16:08:18;9.90;84.80
46085;DHT22;31823;47.032;8.310;2024-03-23T16:10:43;9.90;83.80
46085;DHT22;31823;47.032;8.310;2024-03-23T16:13:09;9.80;83.90
46085;DHT22;31823;47.032;8.310;2024-03-23T16:15:34;9.60;82.70
46085;DHT22;31823;47.032;8.310;2024-03-23T16:18:00;9.60;83.60
46085;DHT22;31823;47.032;8.310;2024-03-23T16:20:26;9.70;85.00
46085;DHT22;31823;47.032;8.310;2024-03-23T16:22:51;9.60;85.00
46085;DHT22;31823;47.032;8.310;2024-03-23T16:25:17;9.50;84.60
46085;DHT22;31823;47.032;8.310;2024-03-23T16:27:42;9.50;82.60
46085;DHT22;31823;47.032;8.310;2024-03-23T16:30:08;9.50;82.60
46085;DHT22;31823;47.032;8.310;2024-03-23T16:32:35;9.40;83.00
46085;DHT22;31823;47.032;8.310;2024-03-23T16:35:03;9.40;83.70
46085;DHT22;31823;47.032;8.310;2024-03-23T16:37:28;9.40;84.10
46085;DHT22;31823;47.032;8.310;2024-03-23T16:39:54;9.50;85.00
46085;DHT22;31823;47.032;8.310;2024-03-23T16:42:20;9.40;82.20
46085;DHT22;31823;47.032;8.310;2024-03-23T16:44:46;9.30;83.70
46085;DHT22;31823;47.032;8.310;2024-03-23T16:47:12;9.40;82.60
46085;DHT22;31823;47.032;8.310;2024-03-23T16:49:38;9.30;85.10
46085;DHT22;31823;47.032;8.310;2024-03-23T16:52:03;9.30;85.30
46085;DHT22;31823;47.032;8.310;2024-03-23T16:54:30;9.30;86.20
46085;DHT22;31823;47.032;8.310;2024-03-23T16:56:55;9.30;85.10